sensor_id;sensor_type;location;lat;lon;timestamp;P1;durP1;ratioP1;P2;durP2;ratioP2
27985;SDS011;15453;53.692;10.168;2023-02-14T00:01:42;35.83;;;21.63;;
27985;SDS011;15453;53.692;10.168;2023-02-14T00:04:09;34.00;;;20.63;;
27985;SDS011;15453;53.692;10.168;2023-02-14T00:06:34;32.22;;;19.10;;
27985;SDS011;15453;53.692;10.168;2023-02-14T00:09:03;36.47;;;22.08;;
27985;SDS011;15453;53.692;10.168;2023-02-14T00:11:29;37.17;;;22.00;;
27985;SDS011;15453;53.692;10.168;2023-02-14T00:13:54;39.15;;;21.70;;
27985;SDS011;15453;53.692;10.168;2023-02-14T00:16:38;37.40;;;22.20;;
27985;SDS011;15453;53.692;10.168;2023-02-14T00:19:03;32.35;;;19.73;;
27985;SDS011;15453;53.692;10.168;2023-02-14T00:21:30;36.55;;;21.13;;
27985;SDS011;15453;53.692;10.168;2023-02-14T00:23:56;37.17;;;21.98;;
27985;SDS011;15453;53.692;10.168;2023-02-14T00:26:21;32.03;;;20.35;;
27985;SDS011;15453;53.692;10.168;2023-02-14T00:28:46;37.38;;;22.35;;
27985;SDS011;15453;53.692;10.168;2023-02-14T00:31:12;35.70;;;21.35;;
27985;SDS011;15453;53.692;10.168;2023-02-14T00:33:37;33.30;;;20.08;;
27985;SDS011;15453;53.692;10.168;2023-02-14T00:36:03;34.00;;;19.33;;
27985;SDS011;15453;53.692;10.168;2023-02-14T00:38:29;34.30;;;19.83;;
27985;SDS011;15453;53.692;10.168;2023-02-14T00:40:54;31.98;;;18.35;;
27985;SDS011;15453;53.692;10.168;2023-02-14T00:43:20;33.38;;;19.60;;
27985;SDS011;15453;53.692;10.168;2023-02-14T00:45:45;34.47;;;20.15;;
27985;SDS011;15453;53.692;10.168;2023-02-14T00:48:10;32.85;;;20.02;;
27985;SDS011;15453;53.692;10.168;2023-02-14T00:50:36;31.58;;;19.65;;
27985;SDS011;15453;53.692;10.168;2023-02-14T00:53:01;31.58;;;19.40;;
27985;SDS011;15453;53.692;10.168;2023-02-14T00:55:26;31.65;;;19.48;;
27985;SDS011;15453;53.692;10.168;2023-02-14T00:57:51;33.33;;;19.70;;
27985;SDS011;15453;53.692;10.168;2023-02-14T01:00:17;33.22;;;19.75;;
27985;SDS011;15453;53.692;10.168;2023-02-14T01:02:42;35.38;;;21.00;;
27985;SDS011;15453;53.692;10.168;2023-02-14T01:05:08;34.72;;;20.95;;
27985;SDS011;15453;53.692;10.168;2023-02-14T01:07:33;36.88;;;21.15;;
27985;SDS011;15453;53.692;10.168;2023-02-14T01:09:58;35.38;;;20.65;;
27985;SDS011;15453;53.692;10.168;2023-02-14T01:12:23;41.47;;;22.25;;
27985;SDS011;15453;53.692;10.168;2023-02-14T01:14:48;43.10;;;25.10;;
27985;SDS011;15453;53.692;10.168;2023-02-14T01:17:14;43.90;;;22.92;;
27985;SDS011;15453;53.692;10.168;2023-02-14T01:19:39;41.28;;;23.65;;
27985;SDS011;15453;53.692;10.168;2023-02-14T01:22:06;40.45;;;24.73;;
27985;SDS011;15453;53.692;10.168;2023-02-14T01:24:32;41.97;;;24.67;;
27985;SDS011;15453;53.692;10.168;2023-02-14T01:26:57;42.25;;;25.02;;
27985;SDS011;15453;53.692;10.168;2023-02-14T01:29:22;39.78;;;24.17;;
27985;SDS011;15453;53.692;10.168;2023-02-14T01:31:48;43.30;;;24.55;;
27985;SDS011;15453;53.692;10.168;2023-02-14T01:34:13;45.40;;;25.85;;
27985;SDS011;15453;53.692;10.168;2023-02-14T01:36:39;41.28;;;22.88;;
27985;SDS011;15453;53.692;10.168;2023-02-14T01:39:05;42.20;;;23.88;;
27985;SDS011;15453;53.692;10.168;2023-02-14T01:41:33;38.70;;;23.15;;
27985;SDS011;15453;53.692;10.168;2023-02-14T01:44:07;41.42;;;24.30;;
27985;SDS011;15453;53.692;10.168;2023-02-14T01:46:57;41.05;;;23.52;;
27985;SDS011;15453;53.692;10.168;2023-02-14T01:49:27;39.73;;;22.17;;
27985;SDS011;15453;53.692;10.168;2023-02-14T01:51:56;36.20;;;21.47;;
27985;SDS011;15453;53.692;10.168;2023-02-14T01:54:26;38.60;;;22.55;;
27985;SDS011;15453;53.692;10.168;2023-02-14T01:56:56;36.85;;;21.85;;
27985;SDS011;15453;53.692;10.168;2023-02-14T01:59:24;36.08;;;22.15;;
27985;SDS011;15453;53.692;10.168;2023-02-14T02:01:52;35.95;;;20.38;;
27985;SDS011;15453;53.692;10.168;2023-02-14T02:04:21;42.85;;;23.08;;
27985;SDS011;15453;53.692;10.168;2023-02-14T02:06:51;38.70;;;23.63;;
27985;SDS011;15453;53.692;10.168;2023-02-14T02:11:52;39.58;;;22.83;;
27985;SDS011;15453;53.692;10.168;2023-02-14T02:14:19;39.90;;;23.50;;
27985;SDS011;15453;53.692;10.168;2023-02-14T02:24:24;41.55;;;24.42;;
27985;SDS011;15453;53.692;10.168;2023-02-14T02:27:37;41.80;;;23.83;;
27985;SDS011;15453;53.692;10.168;2023-02-14T02:29:54;42.45;;;24.67;;
27985;SDS011;15453;53.692;10.168;2023-02-14T02:38:15;35.63;;;20.52;;
27985;SDS011;15453;53.692;10.168;2023-02-14T02:44:02;38.22;;;22.15;;
27985;SDS011;15453;53.692;10.168;2023-02-14T02:46:43;39.95;;;22.60;;
27985;SDS011;15453;53.692;10.168;2023-02-14T02:49:28;39.63;;;22.27;;
27985;SDS011;15453;53.692;10.168;2023-02-14T02:55:26;38.55;;;21.92;;
27985;SDS011;15453;53.692;10.168;2023-02-14T02:58:21;39.67;;;22.88;;
27985;SDS011;15453;53.692;10.168;2023-02-14T03:00:49;40.92;;;23.60;;
27985;SDS011;15453;53.692;10.168;2023-02-14T03:03:17;40.15;;;23.23;;
27985;SDS011;15453;53.692;10.168;2023-02-14T03:06:03;41.28;;;23.85;;
27985;SDS011;15453;53.692;10.168;2023-02-14T03:08:29;39.03;;;21.92;;
27985;SDS011;15453;53.692;10.168;2023-02-14T03:10:54;37.78;;;23.05;;
27985;SDS011;15453;53.692;10.168;2023-02-14T03:19:09;37.72;;;22.05;;
27985;SDS011;15453;53.692;10.168;2023-02-14T03:27:08;37.50;;;21.75;;
27985;SDS011;15453;53.692;10.168;2023-02-14T03:29:42;39.30;;;23.45;;
27985;SDS011;15453;53.692;10.168;2023-02-14T03:32:18;40.22;;;23.40;;
27985;SDS011;15453;53.692;10.168;2023-02-14T03:40:31;37.67;;;21.67;;
27985;SDS011;15453;53.692;10.168;2023-02-14T03:43:03;40.25;;;23.27;;
27985;SDS011;15453;53.692;10.168;2023-02-14T03:45:44;44.78;;;25.88;;
27985;SDS011;15453;53.692;10.168;2023-02-14T03:48:15;41.55;;;23.02;;
27985;SDS011;15453;53.692;10.168;2023-02-14T03:50:44;41.60;;;23.23;;
27985;SDS011;15453;53.692;10.168;2023-02-14T03:53:12;41.67;;;24.15;;
27985;SDS011;15453;53.692;10.168;2023-02-14T03:55:52;43.53;;;23.92;;
27985;SDS011;15453;53.692;10.168;2023-02-14T03:58:25;45.28;;;25.38;;
27985;SDS011;15453;53.692;10.168;2023-02-14T04:00:57;46.50;;;25.38;;
27985;SDS011;15453;53.692;10.168;2023-02-14T04:03:30;43.83;;;24.48;;
27985;SDS011;15453;53.692;10.168;2023-02-14T04:05:57;45.17;;;24.83;;
27985;SDS011;15453;53.692;10.168;2023-02-14T04:08:25;44.20;;;24.80;;
27985;SDS011;15453;53.692;10.168;2023-02-14T04:10:52;42.22;;;23.50;;
27985;SDS011;15453;53.692;10.168;2023-02-14T04:13:20;42.42;;;23.70;;
27985;SDS011;15453;53.692;10.168;2023-02-14T04:15:45;46.17;;;25.67;;
27985;SDS011;15453;53.692;10.168;2023-02-14T04:18:11;42.72;;;24.17;;
27985;SDS011;15453;53.692;10.168;2023-02-14T04:20:55;44.83;;;24.02;;
27985;SDS011;15453;53.692;10.168;2023-02-14T04:23:20;43.38;;;24.42;;
27985;SDS011;15453;53.692;10.168;2023-02-14T04:25:46;47.95;;;26.65;;
27985;SDS011;15453;53.692;10.168;2023-02-14T04:28:11;46.42;;;27.38;;
27985;SDS011;15453;53.692;10.168;2023-02-14T04:30:37;49.17;;;27.35;;
27985;SDS011;15453;53.692;10.168;2023-02-14T04:33:02;47.08;;;26.85;;
27985;SDS011;15453;53.692;10.168;2023-02-14T04:35:28;47.13;;;26.85;;
27985;SDS011;15453;53.692;10.168;2023-02-14T04:37:53;49.00;;;27.80;;
27985;SDS011;15453;53.692;10.168;2023-02-14T04:40:19;48.53;;;26.60;;
27985;SDS011;15453;53.692;10.168;2023-02-14T04:42:44;47.58;;;25.85;;
27985;SDS011;15453;53.692;10.168;2023-02-14T04:45:10;48.30;;;27.30;;
27985;SDS011;15453;53.692;10.168;2023-02-14T04:47:36;44.80;;;25.27;;
27985;SDS011;15453;53.692;10.168;2023-02-14T04:50:01;48.72;;;27.25;;
27985;SDS011;15453;53.692;10.168;2023-02-14T04:52:27;47.67;;;27.00;;
27985;SDS011;15453;53.692;10.168;2023-02-14T04:54:52;47.85;;;26.83;;
27985;SDS011;15453;53.692;10.168;2023-02-14T04:57:17;50.35;;;28.20;;
27985;SDS011;15453;53.692;10.168;2023-02-14T04:59:43;47.97;;;27.27;;
27985;SDS011;15453;53.692;10.168;2023-02-14T05:02:08;47.50;;;27.05;;
27985;SDS011;15453;53.692;10.168;2023-02-14T05:04:33;47.72;;;26.23;;
27985;SDS011;15453;53.692;10.168;2023-02-14T05:06:59;44.30;;;25.08;;
27985;SDS011;15453;53.692;10.168;2023-02-14T05:09:24;46.00;;;26.63;;
27985;SDS011;15453;53.692;10.168;2023-02-14T05:11:49;46.20;;;26.65;;
27985;SDS011;15453;53.692;10.168;2023-02-14T05:14:15;48.72;;;27.85;;
27985;SDS011;15453;53.692;10.168;2023-02-14T05:16:40;49.30;;;28.20;;
27985;SDS011;15453;53.692;10.168;2023-02-14T05:19:06;42.92;;;25.30;;
27985;SDS011;15453;53.692;10.168;2023-02-14T05:21:31;47.13;;;27.15;;
27985;SDS011;15453;53.692;10.168;2023-02-14T05:23:57;47.08;;;26.52;;
27985;SDS011;15453;53.692;10.168;2023-02-14T05:26:23;44.78;;;26.33;;
27985;SDS011;15453;53.692;10.168;2023-02-14T05:28:49;49.58;;;26.73;;
27985;SDS011;15453;53.692;10.168;2023-02-14T05:31:14;53.75;;;28.10;;
27985;SDS011;15453;53.692;10.168;2023-02-14T05:33:39;44.63;;;25.75;;
27985;SDS011;15453;53.692;10.168;2023-02-14T05:36:04;50.63;;;27.48;;
27985;SDS011;15453;53.692;10.168;2023-02-14T05:38:30;47.95;;;27.42;;
27985;SDS011;15453;53.692;10.168;2023-02-14T05:40:57;49.17;;;27.08;;
27985;SDS011;15453;53.692;10.168;2023-02-14T05:43:23;46.08;;;25.52;;
27985;SDS011;15453;53.692;10.168;2023-02-14T05:45:48;48.50;;;26.30;;
27985;SDS011;15453;53.692;10.168;2023-02-14T05:48:14;51.83;;;28.40;;
27985;SDS011;15453;53.692;10.168;2023-02-14T05:50:39;50.17;;;26.45;;
27985;SDS011;15453;53.692;10.168;2023-02-14T05:53:06;48.00;;;26.73;;
27985;SDS011;15453;53.692;10.168;2023-02-14T05:55:32;44.92;;;25.52;;
27985;SDS011;15453;53.692;10.168;2023-02-14T05:57:57;51.33;;;28.23;;
27985;SDS011;15453;53.692;10.168;2023-02-14T06:00:22;47.78;;;27.98;;
27985;SDS011;15453;53.692;10.168;2023-02-14T06:02:48;44.95;;;25.23;;
27985;SDS011;15453;53.692;10.168;2023-02-14T06:05:14;50.03;;;27.63;;
27985;SDS011;15453;53.692;10.168;2023-02-14T06:07:41;47.40;;;26.40;;
27985;SDS011;15453;53.692;10.168;2023-02-14T06:10:07;49.65;;;26.80;;
27985;SDS011;15453;53.692;10.168;2023-02-14T06:12:34;51.00;;;27.63;;
27985;SDS011;15453;53.692;10.168;2023-02-14T06:14:59;48.58;;;26.55;;
27985;SDS011;15453;53.692;10.168;2023-02-14T06:17:24;54.03;;;27.17;;
27985;SDS011;15453;53.692;10.168;2023-02-14T06:19:49;47.30;;;27.00;;
27985;SDS011;15453;53.692;10.168;2023-02-14T06:22:15;43.25;;;24.77;;
27985;SDS011;15453;53.692;10.168;2023-02-14T06:24:40;48.35;;;27.20;;
27985;SDS011;15453;53.692;10.168;2023-02-14T06:27:05;51.35;;;28.88;;
27985;SDS011;15453;53.692;10.168;2023-02-14T06:29:30;45.22;;;24.05;;
27985;SDS011;15453;53.692;10.168;2023-02-14T06:31:55;51.45;;;26.75;;
27985;SDS011;15453;53.692;10.168;2023-02-14T06:34:21;47.45;;;27.00;;
27985;SDS011;15453;53.692;10.168;2023-02-14T06:36:46;52.00;;;29.05;;
27985;SDS011;15453;53.692;10.168;2023-02-14T06:39:11;46.50;;;26.48;;
27985;SDS011;15453;53.692;10.168;2023-02-14T06:41:36;54.53;;;29.10;;
27985;SDS011;15453;53.692;10.168;2023-02-14T06:44:02;48.08;;;27.67;;
27985;SDS011;15453;53.692;10.168;2023-02-14T06:46:27;51.13;;;27.30;;
27985;SDS011;15453;53.692;10.168;2023-02-14T06:48:52;53.65;;;29.45;;
27985;SDS011;15453;53.692;10.168;2023-02-14T06:51:18;53.75;;;28.60;;
27985;SDS011;15453;53.692;10.168;2023-02-14T06:53:43;51.80;;;27.23;;
27985;SDS011;15453;53.692;10.168;2023-02-14T06:56:08;51.38;;;28.40;;
27985;SDS011;15453;53.692;10.168;2023-02-14T06:58:34;49.67;;;26.80;;
27985;SDS011;15453;53.692;10.168;2023-02-14T07:00:59;48.45;;;26.95;;
27985;SDS011;15453;53.692;10.168;2023-02-14T07:03:25;47.47;;;25.65;;
27985;SDS011;15453;53.692;10.168;2023-02-14T07:05:51;46.60;;;26.48;;
27985;SDS011;15453;53.692;10.168;2023-02-14T07:08:17;50.53;;;27.85;;
27985;SDS011;15453;53.692;10.168;2023-02-14T07:10:43;53.97;;;29.55;;
27985;SDS011;15453;53.692;10.168;2023-02-14T07:13:08;50.10;;;27.85;;
27985;SDS011;15453;53.692;10.168;2023-02-14T07:15:33;55.78;;;29.17;;
27985;SDS011;15453;53.692;10.168;2023-02-14T07:17:58;49.13;;;27.25;;
27985;SDS011;15453;53.692;10.168;2023-02-14T07:20:24;46.35;;;26.02;;
27985;SDS011;15453;53.692;10.168;2023-02-14T07:22:49;53.10;;;27.58;;
27985;SDS011;15453;53.692;10.168;2023-02-14T07:25:14;46.25;;;25.38;;
27985;SDS011;15453;53.692;10.168;2023-02-14T07:27:40;49.45;;;26.35;;
27985;SDS011;15453;53.692;10.168;2023-02-14T07:30:06;55.20;;;29.00;;
27985;SDS011;15453;53.692;10.168;2023-02-14T07:32:32;49.22;;;26.70;;
27985;SDS011;15453;53.692;10.168;2023-02-14T07:34:57;49.22;;;27.58;;
27985;SDS011;15453;53.692;10.168;2023-02-14T07:37:22;51.72;;;28.30;;
27985;SDS011;15453;53.692;10.168;2023-02-14T07:39:48;51.63;;;27.02;;
27985;SDS011;15453;53.692;10.168;2023-02-14T07:42:13;50.13;;;25.58;;
27985;SDS011;15453;53.692;10.168;2023-02-14T07:44:38;46.47;;;26.02;;
27985;SDS011;15453;53.692;10.168;2023-02-14T07:47:04;50.83;;;26.98;;
27985;SDS011;15453;53.692;10.168;2023-02-14T07:49:31;49.00;;;25.85;;
27985;SDS011;15453;53.692;10.168;2023-02-14T07:51:56;52.40;;;28.48;;
27985;SDS011;15453;53.692;10.168;2023-02-14T07:54:21;51.22;;;27.40;;
27985;SDS011;15453;53.692;10.168;2023-02-14T07:56:46;47.97;;;26.08;;
27985;SDS011;15453;53.692;10.168;2023-02-14T07:59:12;46.28;;;26.23;;
27985;SDS011;15453;53.692;10.168;2023-02-14T08:01:37;45.25;;;26.27;;
27985;SDS011;15453;53.692;10.168;2023-02-14T08:04:02;48.40;;;27.55;;
27985;SDS011;15453;53.692;10.168;2023-02-14T08:06:28;53.08;;;27.67;;
27985;SDS011;15453;53.692;10.168;2023-02-14T08:08:53;48.22;;;26.33;;
27985;SDS011;15453;53.692;10.168;2023-02-14T08:11:18;52.55;;;27.00;;
27985;SDS011;15453;53.692;10.168;2023-02-14T08:14:03;54.00;;;28.05;;
27985;SDS011;15453;53.692;10.168;2023-02-14T08:19:15;46.70;;;25.10;;
27985;SDS011;15453;53.692;10.168;2023-02-14T08:21:40;54.95;;;27.10;;
27985;SDS011;15453;53.692;10.168;2023-02-14T08:24:06;53.88;;;28.48;;
27985;SDS011;15453;53.692;10.168;2023-02-14T08:26:31;47.28;;;26.77;;
27985;SDS011;15453;53.692;10.168;2023-02-14T08:28:56;51.60;;;27.80;;
27985;SDS011;15453;53.692;10.168;2023-02-14T08:31:26;55.42;;;27.45;;
27985;SDS011;15453;53.692;10.168;2023-02-14T08:33:54;51.47;;;28.00;;
27985;SDS011;15453;53.692;10.168;2023-02-14T08:36:19;44.58;;;24.65;;
27985;SDS011;15453;53.692;10.168;2023-02-14T08:38:45;48.17;;;25.60;;
27985;SDS011;15453;53.692;10.168;2023-02-14T08:41:12;45.55;;;24.75;;
27985;SDS011;15453;53.692;10.168;2023-02-14T08:43:38;44.97;;;24.88;;
27985;SDS011;15453;53.692;10.168;2023-02-14T08:46:03;46.72;;;26.42;;
27985;SDS011;15453;53.692;10.168;2023-02-14T08:48:28;45.40;;;25.05;;
27985;SDS011;15453;53.692;10.168;2023-02-14T08:50:54;44.15;;;24.98;;
27985;SDS011;15453;53.692;10.168;2023-02-14T08:53:19;46.00;;;26.30;;
27985;SDS011;15453;53.692;10.168;2023-02-14T08:55:46;42.97;;;24.40;;
27985;SDS011;15453;53.692;10.168;2023-02-14T08:58:12;37.75;;;21.50;;
27985;SDS011;15453;53.692;10.168;2023-02-14T09:00:37;36.05;;;20.35;;
27985;SDS011;15453;53.692;10.168;2023-02-14T09:03:02;38.95;;;22.00;;
27985;SDS011;15453;53.692;10.168;2023-02-14T09:05:28;33.20;;;19.10;;
27985;SDS011;15453;53.692;10.168;2023-02-14T09:07:54;34.25;;;20.67;;
27985;SDS011;15453;53.692;10.168;2023-02-14T09:10:20;32.90;;;19.10;;
27985;SDS011;15453;53.692;10.168;2023-02-14T09:12:46;34.35;;;20.10;;
27985;SDS011;15453;53.692;10.168;2023-02-14T09:15:11;33.88;;;19.77;;
27985;SDS011;15453;53.692;10.168;2023-02-14T09:17:37;34.58;;;19.25;;
27985;SDS011;15453;53.692;10.168;2023-02-14T09:20:09;32.92;;;19.67;;
27985;SDS011;15453;53.692;10.168;2023-02-14T09:22:35;30.60;;;18.15;;
27985;SDS011;15453;53.692;10.168;2023-02-14T09:25:01;31.00;;;19.60;;
27985;SDS011;15453;53.692;10.168;2023-02-14T09:27:27;38.60;;;20.58;;
27985;SDS011;15453;53.692;10.168;2023-02-14T09:29:52;32.85;;;18.17;;
27985;SDS011;15453;53.692;10.168;2023-02-14T09:32:17;30.02;;;17.67;;
27985;SDS011;15453;53.692;10.168;2023-02-14T09:34:43;27.48;;;16.50;;
27985;SDS011;15453;53.692;10.168;2023-02-14T09:37:27;30.83;;;17.83;;
27985;SDS011;15453;53.692;10.168;2023-02-14T09:40:11;29.13;;;16.98;;
27985;SDS011;15453;53.692;10.168;2023-02-14T09:45:24;28.13;;;17.52;;
27985;SDS011;15453;53.692;10.168;2023-02-14T09:47:53;30.77;;;18.20;;
27985;SDS011;15453;53.692;10.168;2023-02-14T09:50:24;32.17;;;19.33;;
27985;SDS011;15453;53.692;10.168;2023-02-14T09:52:59;31.20;;;19.13;;
27985;SDS011;15453;53.692;10.168;2023-02-14T09:55:29;31.52;;;19.70;;
27985;SDS011;15453;53.692;10.168;2023-02-14T09:58:09;33.00;;;19.58;;
27985;SDS011;15453;53.692;10.168;2023-02-14T10:00:41;32.05;;;19.85;;
27985;SDS011;15453;53.692;10.168;2023-02-14T10:03:17;29.80;;;17.77;;
27985;SDS011;15453;53.692;10.168;2023-02-14T10:08:46;30.08;;;17.10;;
27985;SDS011;15453;53.692;10.168;2023-02-14T10:11:34;27.52;;;17.27;;
27985;SDS011;15453;53.692;10.168;2023-02-14T10:19:37;32.97;;;18.85;;
27985;SDS011;15453;53.692;10.168;2023-02-14T10:22:07;31.27;;;19.92;;
27985;SDS011;15453;53.692;10.168;2023-02-14T10:24:38;35.38;;;20.25;;
27985;SDS011;15453;53.692;10.168;2023-02-14T10:27:25;30.50;;;19.15;;
27985;SDS011;15453;53.692;10.168;2023-02-14T10:29:57;31.38;;;19.27;;
27985;SDS011;15453;53.692;10.168;2023-02-14T10:32:45;28.67;;;18.42;;
27985;SDS011;15453;53.692;10.168;2023-02-14T10:36:12;32.78;;;19.65;;
27985;SDS011;15453;53.692;10.168;2023-02-14T10:55:19;31.58;;;19.35;;
27985;SDS011;15453;53.692;10.168;2023-02-14T10:57:50;32.92;;;18.08;;
27985;SDS011;15453;53.692;10.168;2023-02-14T11:02:57;35.63;;;19.73;;
27985;SDS011;15453;53.692;10.168;2023-02-14T11:05:34;33.20;;;19.88;;
27985;SDS011;15453;53.692;10.168;2023-02-14T11:08:10;29.88;;;18.98;;
27985;SDS011;15453;53.692;10.168;2023-02-14T11:10:39;33.00;;;19.48;;
27985;SDS011;15453;53.692;10.168;2023-02-14T11:13:25;30.30;;;18.50;;
27985;SDS011;15453;53.692;10.168;2023-02-14T11:15:52;30.30;;;18.45;;
27985;SDS011;15453;53.692;10.168;2023-02-14T11:18:24;36.08;;;20.08;;
27985;SDS011;15453;53.692;10.168;2023-02-14T11:21:00;29.80;;;18.10;;
27985;SDS011;15453;53.692;10.168;2023-02-14T11:23:41;28.00;;;18.00;;
27985;SDS011;15453;53.692;10.168;2023-02-14T11:26:24;30.65;;;19.10;;
27985;SDS011;15453;53.692;10.168;2023-02-14T11:29:02;30.23;;;19.52;;
27985;SDS011;15453;53.692;10.168;2023-02-14T11:31:36;32.90;;;19.85;;
27985;SDS011;15453;53.692;10.168;2023-02-14T11:34:23;32.33;;;19.60;;
27985;SDS011;15453;53.692;10.168;2023-02-14T11:37:00;31.33;;;19.20;;
27985;SDS011;15453;53.692;10.168;2023-02-14T11:41:56;32.95;;;21.08;;
27985;SDS011;15453;53.692;10.168;2023-02-14T11:44:25;31.70;;;20.05;;
27985;SDS011;15453;53.692;10.168;2023-02-14T11:46:53;30.35;;;20.70;;
27985;SDS011;15453;53.692;10.168;2023-02-14T11:49:24;31.63;;;20.80;;
27985;SDS011;15453;53.692;10.168;2023-02-14T11:52:10;29.70;;;18.65;;
27985;SDS011;15453;53.692;10.168;2023-02-14T11:54:41;30.17;;;20.17;;
27985;SDS011;15453;53.692;10.168;2023-02-14T11:59:56;29.73;;;18.50;;
27985;SDS011;15453;53.692;10.168;2023-02-14T12:05:05;31.58;;;20.95;;
27985;SDS011;15453;53.692;10.168;2023-02-14T12:07:42;32.42;;;19.50;;
27985;SDS011;15453;53.692;10.168;2023-02-14T12:13:25;31.83;;;20.77;;
27985;SDS011;15453;53.692;10.168;2023-02-14T12:20:48;28.65;;;18.33;;
27985;SDS011;15453;53.692;10.168;2023-02-14T12:26:28;27.67;;;18.30;;
27985;SDS011;15453;53.692;10.168;2023-02-14T12:31:34;31.27;;;19.75;;
27985;SDS011;15453;53.692;10.168;2023-02-14T12:34:00;30.50;;;19.88;;
27985;SDS011;15453;53.692;10.168;2023-02-14T12:39:09;27.70;;;18.27;;
27985;SDS011;15453;53.692;10.168;2023-02-14T12:47:39;27.42;;;18.02;;
27985;SDS011;15453;53.692;10.168;2023-02-14T12:50:28;28.00;;;18.67;;
27985;SDS011;15453;53.692;10.168;2023-02-14T12:53:29;25.70;;;17.30;;
27985;SDS011;15453;53.692;10.168;2023-02-14T12:56:27;26.85;;;17.58;;
27985;SDS011;15453;53.692;10.168;2023-02-14T12:59:13;32.05;;;18.55;;
27985;SDS011;15453;53.692;10.168;2023-02-14T13:01:50;24.67;;;16.92;;
27985;SDS011;15453;53.692;10.168;2023-02-14T13:04:56;27.02;;;17.75;;
27985;SDS011;15453;53.692;10.168;2023-02-14T13:07:28;29.33;;;18.67;;
27985;SDS011;15453;53.692;10.168;2023-02-14T13:10:22;25.95;;;17.85;;
27985;SDS011;15453;53.692;10.168;2023-02-14T13:13:05;24.75;;;16.55;;
27985;SDS011;15453;53.692;10.168;2023-02-14T13:18:49;27.75;;;18.42;;
27985;SDS011;15453;53.692;10.168;2023-02-14T13:21:24;27.05;;;17.95;;
27985;SDS011;15453;53.692;10.168;2023-02-14T13:23:54;25.92;;;17.67;;
27985;SDS011;15453;53.692;10.168;2023-02-14T13:26:27;30.67;;;17.67;;
27985;SDS011;15453;53.692;10.168;2023-02-14T13:31:22;26.40;;;16.10;;
27985;SDS011;15453;53.692;10.168;2023-02-14T13:33:51;27.30;;;17.27;;
27985;SDS011;15453;53.692;10.168;2023-02-14T13:36:20;27.35;;;17.67;;
27985;SDS011;15453;53.692;10.168;2023-02-14T13:38:47;28.77;;;17.23;;
27985;SDS011;15453;53.692;10.168;2023-02-14T13:41:15;28.42;;;18.48;;
27985;SDS011;15453;53.692;10.168;2023-02-14T13:46:12;26.85;;;17.70;;
27985;SDS011;15453;53.692;10.168;2023-02-14T13:48:39;28.98;;;18.33;;
27985;SDS011;15453;53.692;10.168;2023-02-14T13:51:05;29.13;;;18.15;;
27985;SDS011;15453;53.692;10.168;2023-02-14T13:53:39;27.95;;;18.02;;
27985;SDS011;15453;53.692;10.168;2023-02-14T14:02:00;26.17;;;17.33;;
27985;SDS011;15453;53.692;10.168;2023-02-14T14:17:34;28.27;;;17.92;;
27985;SDS011;15453;53.692;10.168;2023-02-14T14:20:11;26.00;;;17.25;;
27985;SDS011;15453;53.692;10.168;2023-02-14T14:22:57;25.02;;;16.02;;
27985;SDS011;15453;53.692;10.168;2023-02-14T14:25:30;27.08;;;17.48;;
27985;SDS011;15453;53.692;10.168;2023-02-14T14:28:09;29.67;;;16.88;;
27985;SDS011;15453;53.692;10.168;2023-02-14T14:30:36;26.40;;;17.48;;
27985;SDS011;15453;53.692;10.168;2023-02-14T14:33:23;26.98;;;17.80;;
27985;SDS011;15453;53.692;10.168;2023-02-14T14:35:52;28.42;;;17.13;;
27985;SDS011;15453;53.692;10.168;2023-02-14T14:38:22;29.85;;;18.77;;
27985;SDS011;15453;53.692;10.168;2023-02-14T14:40:48;28.20;;;18.02;;
27985;SDS011;15453;53.692;10.168;2023-02-14T14:43:16;26.88;;;17.77;;
27985;SDS011;15453;53.692;10.168;2023-02-14T14:45:48;26.52;;;16.98;;
27985;SDS011;15453;53.692;10.168;2023-02-14T14:48:17;27.92;;;17.52;;
27985;SDS011;15453;53.692;10.168;2023-02-14T14:50:50;26.55;;;16.65;;
27985;SDS011;15453;53.692;10.168;2023-02-14T14:53:23;27.20;;;18.05;;
27985;SDS011;15453;53.692;10.168;2023-02-14T14:58:28;26.20;;;17.10;;
27985;SDS011;15453;53.692;10.168;2023-02-14T15:00:57;26.58;;;17.60;;
27985;SDS011;15453;53.692;10.168;2023-02-14T15:03:23;29.25;;;16.95;;
27985;SDS011;15453;53.692;10.168;2023-02-14T15:05:50;28.60;;;18.52;;
27985;SDS011;15453;53.692;10.168;2023-02-14T15:10:58;29.90;;;18.58;;
27985;SDS011;15453;53.692;10.168;2023-02-14T15:13:34;23.15;;;15.25;;
27985;SDS011;15453;53.692;10.168;2023-02-14T15:21:58;26.40;;;17.15;;
27985;SDS011;15453;53.692;10.168;2023-02-14T15:24:42;25.42;;;16.60;;
27985;SDS011;15453;53.692;10.168;2023-02-14T15:27:19;24.38;;;15.05;;
27985;SDS011;15453;53.692;10.168;2023-02-14T15:30:03;24.92;;;16.33;;
27985;SDS011;15453;53.692;10.168;2023-02-14T15:32:31;28.20;;;17.10;;
27985;SDS011;15453;53.692;10.168;2023-02-14T15:35:00;26.60;;;16.83;;
27985;SDS011;15453;53.692;10.168;2023-02-14T15:37:27;25.35;;;15.90;;
27985;SDS011;15453;53.692;10.168;2023-02-14T15:39:53;25.38;;;16.88;;
27985;SDS011;15453;53.692;10.168;2023-02-14T15:48:03;23.88;;;15.68;;
27985;SDS011;15453;53.692;10.168;2023-02-14T15:50:33;23.48;;;14.90;;
27985;SDS011;15453;53.692;10.168;2023-02-14T15:53:23;26.90;;;16.38;;
27985;SDS011;15453;53.692;10.168;2023-02-14T15:56:00;25.48;;;16.05;;
27985;SDS011;15453;53.692;10.168;2023-02-14T15:58:28;25.30;;;16.60;;
27985;SDS011;15453;53.692;10.168;2023-02-14T16:00:56;27.60;;;16.92;;
27985;SDS011;15453;53.692;10.168;2023-02-14T16:03:24;24.92;;;15.77;;
27985;SDS011;15453;53.692;10.168;2023-02-14T16:05:51;21.55;;;15.25;;
27985;SDS011;15453;53.692;10.168;2023-02-14T16:11:03;24.67;;;15.75;;
27985;SDS011;15453;53.692;10.168;2023-02-14T16:13:33;26.38;;;16.02;;
27985;SDS011;15453;53.692;10.168;2023-02-14T16:18:38;27.10;;;17.08;;
27985;SDS011;15453;53.692;10.168;2023-02-14T16:21:24;25.38;;;16.60;;
27985;SDS011;15453;53.692;10.168;2023-02-14T16:26:30;26.00;;;16.55;;
27985;SDS011;15453;53.692;10.168;2023-02-14T16:28:55;27.65;;;17.27;;
27985;SDS011;15453;53.692;10.168;2023-02-14T16:31:21;25.98;;;17.42;;
27985;SDS011;15453;53.692;10.168;2023-02-14T16:33:46;27.67;;;17.38;;
27985;SDS011;15453;53.692;10.168;2023-02-14T16:36:17;27.98;;;17.27;;
27985;SDS011;15453;53.692;10.168;2023-02-14T16:38:47;27.90;;;17.42;;
27985;SDS011;15453;53.692;10.168;2023-02-14T16:41:14;24.67;;;16.45;;
27985;SDS011;15453;53.692;10.168;2023-02-14T16:43:44;27.98;;;16.73;;
27985;SDS011;15453;53.692;10.168;2023-02-14T16:46:11;26.33;;;16.15;;
27985;SDS011;15453;53.692;10.168;2023-02-14T16:48:39;27.50;;;16.55;;
27985;SDS011;15453;53.692;10.168;2023-02-14T16:51:05;54.15;;;29.80;;
27985;SDS011;15453;53.692;10.168;2023-02-14T16:53:30;49.17;;;27.10;;
27985;SDS011;15453;53.692;10.168;2023-02-14T16:55:56;44.40;;;26.33;;
27985;SDS011;15453;53.692;10.168;2023-02-14T16:58:22;37.97;;;23.15;;